createdAt,value
2018-09-26T00:01:05.522Z,587.98
2018-09-26T00:03:07.768Z,577.42
2018-09-26T00:05:10.046Z,586.38
2018-09-26T00:07:12.292Z,568.13
2018-09-26T00:09:14.588Z,565.55
2018-09-26T00:11:16.842Z,570.92
2018-09-26T00:13:19.136Z,558.67
2018-09-26T00:15:21.386Z,551.50
2018-09-26T00:17:23.633Z,556.55
2018-09-26T00:19:25.947Z,553.85
2018-09-26T00:21:28.584Z,546.12
2018-09-26T00:23:30.820Z,549.65
2018-09-26T00:25:33.100Z,538.85
2018-09-26T00:27:35.355Z,540.28
2018-09-26T00:29:37.679Z,534.00
2018-09-26T00:31:39.932Z,523.25
2018-09-26T00:33:42.231Z,519.10
2018-09-26T00:35:44.548Z,529.98
2018-09-26T00:37:46.750Z,518.02
2018-09-26T00:39:49.039Z,520.80
2018-09-26T00:41:51.269Z,504.72
2018-09-26T00:43:53.571Z,499.23
2018-09-26T00:45:55.853Z,497.43
2018-09-26T00:47:58.107Z,492.48
2018-09-26T00:50:00.388Z,494.75
2018-09-26T00:52:02.654Z,486.28
2018-09-26T00:54:04.940Z,487.20
2018-09-26T00:56:07.224Z,478.98
2018-09-26T00:58:09.512Z,478.75
2018-09-26T01:00:11.756Z,475.18
2018-09-26T01:02:14.043Z,472.17
2018-09-26T01:04:16.300Z,464.73
2018-09-26T01:06:18.570Z,469.90
2018-09-26T01:08:20.792Z,458.87
2018-09-26T01:10:23.063Z,462.00
2018-09-26T01:12:25.342Z,444.25
2018-09-26T01:14:27.590Z,437.35
2018-09-26T01:16:29.867Z,452.67
2018-09-26T01:18:32.158Z,425.35
2018-09-26T01:20:34.432Z,431.37
2018-09-26T01:22:36.728Z,430.00
2018-09-26T01:24:38.992Z,433.20
2018-09-26T01:26:41.280Z,425.12
2018-09-26T01:28:43.564Z,424.50
2018-09-26T01:30:45.803Z,416.75
2018-09-26T01:32:48.050Z,422.63
2018-09-26T01:34:50.332Z,408.27
2018-09-26T01:36:52.584Z,417.42
2018-09-26T01:38:54.826Z,401.52
2018-09-26T01:40:57.097Z,402.58
2018-09-26T01:42:59.339Z,402.25
2018-09-26T01:45:01.651Z,404.83
2018-09-26T01:47:03.909Z,394.35
2018-09-26T01:49:06.181Z,394.87
2018-09-26T01:51:08.430Z,392.20
2018-09-26T01:53:10.667Z,395.95
2018-09-26T01:55:12.962Z,387.20
2018-09-26T01:57:15.210Z,390.12
2018-09-26T01:59:17.485Z,384.07
2018-09-26T02:01:19.748Z,383.93
2018-09-26T02:03:22.049Z,380.18
2018-09-26T02:05:24.323Z,373.80
2018-09-26T02:07:26.595Z,370.27
2018-09-26T02:09:28.865Z,369.85
2018-09-26T02:11:31.146Z,366.23
2018-09-26T02:13:33.387Z,361.32
2018-09-26T02:15:35.639Z,363.35
2018-09-26T02:17:37.909Z,360.05
2018-09-26T02:19:40.191Z,353.12
2018-09-26T02:21:42.477Z,357.92
2018-09-26T02:23:44.807Z,350.98
2018-09-26T02:25:47.368Z,350.30
2018-09-26T02:27:49.653Z,351.32
2018-09-26T02:29:51.891Z,346.18
2018-09-26T02:31:54.180Z,343.17
2018-09-26T02:33:56.471Z,337.65
2018-09-26T02:35:58.731Z,346.13
2018-09-26T02:38:01.050Z,343.88
2018-09-26T02:40:03.287Z,338.00
2018-09-26T02:42:05.537Z,328.85
2018-09-26T02:44:07.832Z,328.20
2018-09-26T02:46:10.089Z,321.75
2018-09-26T02:48:12.344Z,320.05
2018-09-26T02:50:14.631Z,320.88
2018-09-26T02:52:16.883Z,318.48
2018-09-26T02:54:19.148Z,318.70
2018-09-26T02:56:21.405Z,313.70
2018-09-26T02:58:23.664Z,320.80
2018-09-26T03:00:25.969Z,313.40
2018-09-26T03:02:28.204Z,305.25
2018-09-26T03:04:30.496Z,304.73
2018-09-26T03:06:32.751Z,300.65
2018-09-26T03:08:35.053Z,298.02
2018-09-26T03:10:37.314Z,296.43
2018-09-26T03:12:39.583Z,292.45
2018-09-26T03:14:41.875Z,293.48
2018-09-26T03:16:44.129Z,293.25
2018-09-26T03:18:46.392Z,285.85
2018-09-26T03:20:48.682Z,287.35
2018-09-26T03:22:50.921Z,289.48
2018-09-26T03:24:53.159Z,288.57
2018-09-26T03:26:55.447Z,275.90
2018-09-26T03:28:57.699Z,287.35
2018-09-26T03:30:59.983Z,269.30
2018-09-26T03:33:02.224Z,275.95
2018-09-26T03:35:04.455Z,272.35
2018-09-26T03:37:06.754Z,273.43
2018-09-26T03:39:09.052Z,268.25
2018-09-26T03:41:11.324Z,265.32
2018-09-26T03:43:13.580Z,261.80
2018-09-26T03:45:15.868Z,266.33
2018-09-26T03:47:18.116Z,259.02
2018-09-26T03:49:20.400Z,256.15
2018-09-26T03:51:22.665Z,250.60
2018-09-26T03:53:24.962Z,248.47
2018-09-26T03:55:27.174Z,254.97
2018-09-26T03:57:29.485Z,254.32
2018-09-26T03:59:31.735Z,244.50
2018-09-26T04:01:33.994Z,242.15
2018-09-26T04:03:36.292Z,245.20
2018-09-26T04:05:38.561Z,242.62
2018-09-26T04:07:40.856Z,237.97
2018-09-26T04:09:43.101Z,239.12
2018-09-26T04:11:45.390Z,236.80
2018-09-26T04:13:47.636Z,234.40
2018-09-26T04:15:49.950Z,233.68
2018-09-26T04:17:52.552Z,231.28
2018-09-26T04:19:54.796Z,227.28
2018-09-26T04:21:57.040Z,226.07
2018-09-26T04:23:59.341Z,226.55
2018-09-26T04:26:01.598Z,220.70
2018-09-26T04:28:03.882Z,219.75
2018-09-26T04:30:06.137Z,214.80
2018-09-26T04:32:08.423Z,218.10
2018-09-26T04:34:10.680Z,216.17
2018-09-26T04:36:12.918Z,210.72
2018-09-26T04:38:15.180Z,208.95
2018-09-26T04:40:17.480Z,211.22
2018-09-26T04:42:19.764Z,210.28
2018-09-26T04:44:22.011Z,210.65
2018-09-26T04:46:24.267Z,202.38
2018-09-26T04:48:26.544Z,202.72
2018-09-26T04:50:28.833Z,201.45
2018-09-26T04:52:31.089Z,203.58
2018-09-26T04:54:33.331Z,195.43
2018-09-26T04:56:35.612Z,195.43
2018-09-26T04:58:37.904Z,191.60
2018-09-26T05:00:40.156Z,197.25
2018-09-26T05:02:42.459Z,194.43
2018-09-26T05:04:44.708Z,186.22
2018-09-26T05:06:46.930Z,191.82
2018-09-26T05:08:49.258Z,184.48
2018-09-26T05:10:51.484Z,186.45
2018-09-26T05:12:53.724Z,184.25
2018-09-26T05:14:56.020Z,182.35
2018-09-26T05:16:58.290Z,181.22
2018-09-26T05:19:00.537Z,173.93
2018-09-26T05:21:02.831Z,180.75
2018-09-26T05:23:05.111Z,175.03
2018-09-26T05:25:07.400Z,177.15
2018-09-26T05:27:09.666Z,168.35
2018-09-26T05:29:11.922Z,169.13
2018-09-26T05:31:14.230Z,166.70
2018-09-26T05:33:16.484Z,163.30
2018-09-26T05:35:18.732Z,162.05
2018-09-26T05:37:21.008Z,161.15
2018-09-26T05:39:23.416Z,161.37
2018-09-26T05:41:25.645Z,162.18
2018-09-26T05:43:27.924Z,162.62
2018-09-26T05:45:30.176Z,159.67
2018-09-26T05:47:32.447Z,161.88
2018-09-26T05:49:34.701Z,153.00
2018-09-26T05:51:36.973Z,159.07
2018-09-26T05:53:39.215Z,149.82
2018-09-26T05:55:41.515Z,154.30
2018-09-26T05:57:43.785Z,151.02
2018-09-26T05:59:46.065Z,147.17
2018-09-26T06:01:48.827Z,145.70
2018-09-26T06:03:51.096Z,146.15
2018-09-26T06:05:53.376Z,144.70
2018-09-26T06:07:55.629Z,140.88
2018-09-26T06:09:57.923Z,141.53
2018-09-26T06:12:00.211Z,141.75
2018-09-26T06:14:02.521Z,139.25
2018-09-26T06:16:04.807Z,138.10
2018-09-26T06:18:07.057Z,133.80
2018-09-26T06:20:09.341Z,133.87
2018-09-26T06:22:11.617Z,138.50
2018-09-26T06:24:13.894Z,129.95
2018-09-26T06:26:16.217Z,130.72
2018-09-26T06:28:18.506Z,128.42
2018-09-26T06:30:20.805Z,127.47
2018-09-26T06:32:23.087Z,125.35
2018-09-26T06:34:25.372Z,127.53
2018-09-26T06:36:27.652Z,122.33
2018-09-26T06:38:29.968Z,116.35
2018-09-26T06:40:32.687Z,120.70
2018-09-26T06:42:34.854Z,119.02
2018-09-26T06:44:37.134Z,122.58
2018-09-26T06:46:39.439Z,119.77
2018-09-26T06:48:41.722Z,98.22
2018-09-26T06:50:44.019Z,181.52
2018-09-26T06:52:46.265Z,391.77
2018-09-26T06:54:48.565Z,207.52
2018-09-26T06:56:50.868Z,176.27
2018-09-26T06:58:53.133Z,179.42
2018-09-26T07:00:55.423Z,173.35
2018-09-26T07:02:57.715Z,190.85
2018-09-26T07:04:59.991Z,215.05
2018-09-26T07:07:02.231Z,256.60
2018-09-26T07:09:04.515Z,284.75
2018-09-26T07:11:06.785Z,269.20
2018-09-26T07:13:09.084Z,284.80
2018-09-26T07:15:11.333Z,347.90
2018-09-26T07:17:13.636Z,318.50
2018-09-26T07:19:15.933Z,295.93
2018-09-26T07:21:18.173Z,303.12
2018-09-26T07:23:20.479Z,346.13
2018-09-26T07:25:22.736Z,362.72
2018-09-26T07:27:25.043Z,344.37
2018-09-26T07:29:27.291Z,350.32
2018-09-26T07:31:29.607Z,378.45
2018-09-26T07:33:31.886Z,403.55
2018-09-26T07:35:34.137Z,400.25
2018-09-26T07:37:36.373Z,411.28
2018-09-26T07:39:38.651Z,387.72
2018-09-26T07:41:40.916Z,411.62
2018-09-26T07:43:43.567Z,392.37
2018-09-26T07:45:45.941Z,376.15
2018-09-26T07:47:48.086Z,377.45
2018-09-26T07:49:50.400Z,383.82
2018-09-26T07:51:52.664Z,369.32
2018-09-26T07:53:54.979Z,392.80
2018-09-26T07:55:57.257Z,395.15
2018-09-26T07:57:59.541Z,437.08
2018-09-26T08:00:01.853Z,419.93
2018-09-26T08:02:04.098Z,420.32
2018-09-26T08:04:06.383Z,440.28
2018-09-26T08:06:08.611Z,464.93
2018-09-26T08:08:10.901Z,446.60
2018-09-26T08:10:13.182Z,460.20
2018-09-26T08:12:15.485Z,460.60
2018-09-26T08:14:17.731Z,475.30
2018-09-26T08:16:20.124Z,459.70
2018-09-26T08:18:22.465Z,457.52
2018-09-26T08:20:24.671Z,444.35
2018-09-26T08:22:26.975Z,450.45
2018-09-26T08:24:29.261Z,477.52
2018-09-26T08:26:31.514Z,498.00
2018-09-26T08:28:33.784Z,504.05
2018-09-26T08:30:36.043Z,497.67
2018-09-26T08:32:38.340Z,520.73
2018-09-26T08:34:40.619Z,509.00
2018-09-26T08:36:42.890Z,542.77
2018-09-26T08:38:45.166Z,568.92
2018-09-26T08:40:47.416Z,555.95
2018-09-26T08:42:49.666Z,542.63
2018-09-26T08:44:51.952Z,541.92
2018-09-26T08:46:54.380Z,564.27
2018-09-26T08:48:56.940Z,568.05
2018-09-26T08:50:59.185Z,616.10
2018-09-26T08:53:01.502Z,600.58
2018-09-26T08:55:03.752Z,583.10
2018-09-26T08:57:06.382Z,578.12
2018-09-26T08:59:08.653Z,567.05
2018-09-26T09:01:10.935Z,594.62
2018-09-26T09:03:13.234Z,586.70
2018-09-26T09:05:15.535Z,606.83
2018-09-26T09:07:17.790Z,627.30
2018-09-26T09:09:20.132Z,654.67
2018-09-26T09:11:22.378Z,652.60
2018-09-26T09:13:24.625Z,663.08
2018-09-26T09:15:26.915Z,651.82
2018-09-26T09:17:29.164Z,470.50
2018-09-26T09:19:31.435Z,492.25
2018-09-26T09:21:33.731Z,552.35
2018-09-26T09:23:35.984Z,560.70
2018-09-26T09:25:38.271Z,548.40
2018-09-26T09:27:40.595Z,567.25
2018-09-26T09:29:42.878Z,528.42
2018-09-26T09:31:45.169Z,501.27
2018-09-26T09:33:47.425Z,470.42
2018-09-26T09:35:49.674Z,482.43
2018-09-26T09:37:51.948Z,514.05
2018-09-26T09:39:54.180Z,534.40
2018-09-26T09:41:56.470Z,574.80
2018-09-26T09:43:58.739Z,547.33
2018-09-26T09:46:01.018Z,555.15
2018-09-26T09:48:03.327Z,569.65
2018-09-26T09:50:05.597Z,563.15
2018-09-26T09:52:07.847Z,563.60
2018-09-26T09:54:10.161Z,552.67
2018-09-26T09:56:12.488Z,554.67
2018-09-26T09:58:14.696Z,547.17
2018-09-26T10:00:17.010Z,564.08
2018-09-26T10:02:19.297Z,566.65
2018-09-26T10:04:21.531Z,572.35
2018-09-26T10:06:23.823Z,590.98
2018-09-26T10:08:26.185Z,590.80
2018-09-26T10:10:28.894Z,608.62
2018-09-26T10:12:31.211Z,585.78
2018-09-26T10:14:33.464Z,599.65
2018-09-26T10:16:35.773Z,594.17
2018-09-26T10:18:38.051Z,619.47
2018-09-26T10:20:40.305Z,627.47
2018-09-26T10:22:42.592Z,655.55
2018-09-26T10:24:44.902Z,672.20
2018-09-26T10:26:47.136Z,628.17
2018-09-26T10:28:49.382Z,655.05
2018-09-26T10:30:51.687Z,621.75
2018-09-26T10:32:53.965Z,531.02
2018-09-26T10:34:56.242Z,596.95
2018-09-26T10:36:58.482Z,585.58
2018-09-26T10:39:00.735Z,585.63
2018-09-26T10:41:03.018Z,672.67
2018-09-26T10:43:05.317Z,577.85
2018-09-26T10:45:07.613Z,598.00
2018-09-26T10:47:09.877Z,572.58
2018-09-26T10:49:12.119Z,572.83
2018-09-26T10:51:14.415Z,518.00
2018-09-26T10:53:16.658Z,523.02
2018-09-26T10:55:18.963Z,512.65
2018-09-26T10:57:21.216Z,504.27
2018-09-26T10:59:23.512Z,499.80
2018-09-26T11:01:25.751Z,524.33
2018-09-26T11:03:28.023Z,521.22
2018-09-26T11:05:30.279Z,504.92
2018-09-26T11:07:32.575Z,492.55
2018-09-26T11:09:34.826Z,517.17
2018-09-26T11:11:37.085Z,520.83
2018-09-26T11:13:39.383Z,777.15
2018-09-26T11:15:41.626Z,592.12
2018-09-26T11:17:43.877Z,539.15
2018-09-26T11:19:46.169Z,546.72
2018-09-26T11:21:48.429Z,538.85
2018-09-26T11:23:50.679Z,515.60
2018-09-26T11:25:52.967Z,543.15
2018-09-26T11:27:55.219Z,523.92
2018-09-26T11:29:57.467Z,475.05
2018-09-26T11:31:59.771Z,524.08
2018-09-26T11:34:02.053Z,592.83
2018-09-26T11:36:04.353Z,574.27
2018-09-26T11:38:06.604Z,511.20
2018-09-26T11:40:08.854Z,515.67
2018-09-26T11:42:11.117Z,490.28
2018-09-26T11:44:13.436Z,507.27
2018-09-26T11:46:15.706Z,534.75
2018-09-26T11:48:17.935Z,520.73
2018-09-26T11:50:20.224Z,501.67
2018-09-26T11:52:22.540Z,509.70
2018-09-26T11:54:24.759Z,516.20
2018-09-26T11:56:27.044Z,509.57
2018-09-26T11:58:29.305Z,500.18
2018-09-26T12:00:31.561Z,508.53
2018-09-26T12:02:33.943Z,527.05
2018-09-26T12:04:36.112Z,507.85
2018-09-26T12:06:38.352Z,516.90
2018-09-26T12:08:40.673Z,499.40
2018-09-26T12:10:42.929Z,513.08
2018-09-26T12:12:45.207Z,499.48
2018-09-26T12:14:47.460Z,489.02
2018-09-26T12:16:49.758Z,474.45
2018-09-26T12:18:52.059Z,500.32
2018-09-26T12:20:54.343Z,474.92
2018-09-26T12:22:56.603Z,463.65
2018-09-26T12:24:59.543Z,466.98
2018-09-26T12:27:01.842Z,445.60
2018-09-26T12:29:04.086Z,764.58
2018-09-26T12:31:06.367Z,503.50
2018-09-26T12:33:08.655Z,501.30
2018-09-26T12:35:10.932Z,491.98
2018-09-26T12:37:13.196Z,510.97
2018-09-26T12:39:15.479Z,495.45
2018-09-26T12:41:17.748Z,495.98
2018-09-26T12:43:20.009Z,485.43
2018-09-26T12:45:22.297Z,506.85
2018-09-26T12:47:24.600Z,499.45
2018-09-26T12:49:26.817Z,526.27
2018-09-26T12:51:30.002Z,538.48
2018-09-26T12:53:32.348Z,556.65
2018-09-26T12:55:34.587Z,549.95
2018-09-26T12:57:36.831Z,584.63
2018-09-26T12:59:39.133Z,583.33
2018-09-26T13:01:41.457Z,610.90
2018-09-26T13:03:43.694Z,609.92
2018-09-26T13:05:46.047Z,601.98
2018-09-26T13:07:48.244Z,638.67
2018-09-26T13:09:50.493Z,627.80
2018-09-26T13:11:52.782Z,643.52
2018-09-26T13:13:55.351Z,642.03
2018-09-26T13:15:57.572Z,618.42
2018-09-26T13:17:59.828Z,623.17
2018-09-26T13:20:02.125Z,636.40
2018-09-26T13:22:04.471Z,665.95
2018-09-26T13:24:06.727Z,686.10
2018-09-26T13:26:09.059Z,691.73
2018-09-26T13:28:11.340Z,688.52
2018-09-26T13:30:14.015Z,670.75
2018-09-26T13:32:16.324Z,684.85
2018-09-26T13:34:18.530Z,687.50
2018-09-26T13:36:20.781Z,640.08
2018-09-26T13:38:23.149Z,663.55
2018-09-26T13:40:25.370Z,617.40
2018-09-26T13:42:27.657Z,701.10
2018-09-26T13:44:29.892Z,715.58
2018-09-26T13:46:32.271Z,717.55
2018-09-26T13:48:34.464Z,711.62
2018-09-26T13:50:36.762Z,715.83
2018-09-26T13:52:39.041Z,729.33
2018-09-26T13:54:41.284Z,739.87
2018-09-26T13:56:43.560Z,732.80
2018-09-26T13:58:45.838Z,709.40
2018-09-26T14:00:48.114Z,720.83
2018-09-26T14:02:50.370Z,736.88
2018-09-26T14:04:52.632Z,731.40
2018-09-26T14:06:54.908Z,710.95
2018-09-26T14:08:57.181Z,727.58
2018-09-26T14:10:59.517Z,716.70
2018-09-26T14:13:01.746Z,716.02
2018-09-26T14:15:04.019Z,701.17
2018-09-26T14:17:06.286Z,661.98
2018-09-26T14:19:08.556Z,678.48
2018-09-26T14:21:10.799Z,700.55
2018-09-26T14:23:13.176Z,707.75
2018-09-26T14:25:15.390Z,703.48
2018-09-26T14:27:17.634Z,690.05
2018-09-26T14:29:19.970Z,709.67
2018-09-26T14:31:22.186Z,737.80
2018-09-26T14:33:24.404Z,732.98
2018-09-26T14:35:26.763Z,732.47
2018-09-26T14:37:29.006Z,750.33
2018-09-26T14:39:31.391Z,738.60
2018-09-26T14:41:33.555Z,732.45
2018-09-26T14:43:35.881Z,742.85
2018-09-26T14:45:38.132Z,723.37
2018-09-26T14:47:40.419Z,705.08
2018-09-26T14:49:42.662Z,759.00
2018-09-26T14:51:44.945Z,765.83
2018-09-26T14:53:47.221Z,779.27
2018-09-26T14:55:49.475Z,774.52
2018-09-26T14:57:51.777Z,778.55
2018-09-26T14:59:54.023Z,769.13
2018-09-26T15:01:56.263Z,775.90
2018-09-26T15:03:58.597Z,756.87
2018-09-26T15:06:00.809Z,761.85
2018-09-26T15:08:03.088Z,759.65
2018-09-26T15:10:05.340Z,584.37
2018-09-26T15:12:07.592Z,469.55
2018-09-26T15:14:09.893Z,372.50
2018-09-26T15:16:12.170Z,422.57
2018-09-26T15:18:14.443Z,592.37
2018-09-26T15:20:16.762Z,687.02
2018-09-26T15:22:19.010Z,685.85
2018-09-26T15:24:21.740Z,680.35
2018-09-26T15:26:23.979Z,659.85
2018-09-26T15:28:26.201Z,669.85
2018-09-26T15:30:28.658Z,643.97
2018-09-26T15:32:30.930Z,665.50
2018-09-26T15:34:33.165Z,651.73
2018-09-26T15:36:35.793Z,648.02
2018-09-26T15:38:38.052Z,646.50
2018-09-26T15:40:40.439Z,422.57
2018-09-26T15:42:42.617Z,409.83
2018-09-26T15:44:44.895Z,199.45
2018-09-26T15:46:47.195Z,152.70
2018-09-26T15:48:49.465Z,168.10
2018-09-26T15:50:51.719Z,231.02
2018-09-26T15:52:54.017Z,115.08
2018-09-26T15:54:56.267Z,131.07
2018-09-26T15:56:58.517Z,99.20
2018-09-26T15:59:00.810Z,111.97
2018-09-26T16:01:03.053Z,109.57
2018-09-26T16:03:05.375Z,250.75
2018-09-26T16:05:07.592Z,393.42
2018-09-26T16:07:09.839Z,432.80
2018-09-26T16:09:12.105Z,418.65
2018-09-26T16:11:14.339Z,381.20
2018-09-26T16:13:16.631Z,364.40
2018-09-26T16:15:18.925Z,354.13
2018-09-26T16:17:21.208Z,350.38
2018-09-26T16:19:23.489Z,352.60
2018-09-26T16:21:25.733Z,353.15
2018-09-26T16:23:27.996Z,357.32
2018-09-26T16:25:30.369Z,354.90
2018-09-26T16:27:32.546Z,358.13
2018-09-26T16:29:34.784Z,353.37
2018-09-26T16:31:37.085Z,349.20
2018-09-26T16:33:39.367Z,349.77
2018-09-26T16:35:41.608Z,361.25
2018-09-26T16:37:43.855Z,350.93
2018-09-26T16:39:46.127Z,355.80
2018-09-26T16:41:48.373Z,350.65
2018-09-26T16:43:50.681Z,345.50
2018-09-26T16:45:52.934Z,359.57
2018-09-26T16:47:55.205Z,335.93
2018-09-26T16:49:57.467Z,339.30
2018-09-26T16:51:59.735Z,337.27
2018-09-26T16:54:02.029Z,335.08
2018-09-26T16:56:04.340Z,333.30
2018-09-26T16:58:06.979Z,333.87
2018-09-26T17:00:09.252Z,331.70
2018-09-26T17:02:11.569Z,316.23
2018-09-26T17:04:14.382Z,340.23
2018-09-26T17:06:16.689Z,338.87
2018-09-26T17:08:18.977Z,323.05
2018-09-26T17:10:21.243Z,327.87
2018-09-26T17:12:24.012Z,320.35
2018-09-26T17:14:26.258Z,322.75
2018-09-26T17:16:28.514Z,312.27
2018-09-26T17:18:30.761Z,322.85
2018-09-26T17:20:33.035Z,307.95
2018-09-26T17:22:35.565Z,306.45
2018-09-26T17:24:37.849Z,306.47
2018-09-26T17:26:40.114Z,309.35
2018-09-26T17:28:42.488Z,298.77
2018-09-26T17:30:44.668Z,302.25
2018-09-26T17:32:46.952Z,311.85
2018-09-26T17:34:49.258Z,291.73
2018-09-26T17:36:51.483Z,289.52
2018-09-26T17:38:53.771Z,289.57
2018-09-26T17:40:56.005Z,296.77
2018-09-26T17:42:58.288Z,299.70
2018-09-26T17:45:00.548Z,284.95
2018-09-26T17:47:02.831Z,294.35
2018-09-26T17:49:05.094Z,296.68
2018-09-26T17:51:07.375Z,298.93
2018-09-26T17:53:09.631Z,283.38
2018-09-26T17:55:11.910Z,287.68
2018-09-26T17:57:14.164Z,288.35
2018-09-26T17:59:16.464Z,273.35
2018-09-26T18:01:18.782Z,282.07
2018-09-26T18:03:20.991Z,283.52
2018-09-26T18:05:23.308Z,268.00
2018-09-26T18:07:25.564Z,279.75
2018-09-26T18:09:27.862Z,265.68
2018-09-26T18:11:30.168Z,269.48
2018-09-26T18:13:32.407Z,268.55
2018-09-26T18:15:34.670Z,265.37
2018-09-26T18:17:36.946Z,284.77
2018-09-26T18:19:39.207Z,263.07
2018-09-26T18:21:41.479Z,277.62
2018-09-26T18:23:43.735Z,260.45
2018-09-26T18:25:45.999Z,263.80
2018-09-26T18:27:48.320Z,259.05
2018-09-26T18:29:50.570Z,257.23
2018-09-26T18:31:52.872Z,264.65
2018-09-26T18:33:55.132Z,245.02
2018-09-26T18:35:57.394Z,248.22
2018-09-26T18:37:59.656Z,261.40
2018-09-26T18:40:01.938Z,245.85
2018-09-26T18:42:04.217Z,255.65
2018-09-26T18:44:06.508Z,256.75
2018-09-26T18:46:08.765Z,252.32
2018-09-26T18:48:11.030Z,240.30
2018-09-26T18:50:13.278Z,260.40
2018-09-26T18:52:15.564Z,238.70
2018-09-26T18:54:17.826Z,237.25
2018-09-26T18:56:20.112Z,230.65
2018-09-26T18:58:22.418Z,237.97
2018-09-26T19:00:24.670Z,315.02
2018-09-26T19:02:26.952Z,290.48
2018-09-26T19:04:29.387Z,307.55
2018-09-26T19:06:31.609Z,317.55
2018-09-26T19:08:33.927Z,333.15
2018-09-26T19:10:36.180Z,329.32
2018-09-26T19:12:38.478Z,337.50
2018-09-26T19:14:40.709Z,339.12
2018-09-26T19:16:42.956Z,338.52
2018-09-26T19:18:45.232Z,320.97
2018-09-26T19:20:47.523Z,328.02
2018-09-26T19:22:49.769Z,535.00
2018-09-26T19:24:52.060Z,342.23
2018-09-26T19:26:54.311Z,336.57
2018-09-26T19:28:56.600Z,364.95
2018-09-26T19:30:58.906Z,386.50
2018-09-26T19:33:01.228Z,384.35
2018-09-26T19:35:03.465Z,397.02
2018-09-26T19:37:05.767Z,387.48
2018-09-26T19:39:08.043Z,361.77
2018-09-26T19:41:10.325Z,380.80
2018-09-26T19:43:12.617Z,435.57
2018-09-26T19:45:14.894Z,398.48
2018-09-26T19:47:17.143Z,406.63
2018-09-26T19:49:19.434Z,410.93
2018-09-26T19:51:21.722Z,444.47
2018-09-26T19:53:24.009Z,467.00
2018-09-26T19:55:26.269Z,456.57
2018-09-26T19:57:28.551Z,426.00
2018-09-26T19:59:30.819Z,438.30
2018-09-26T20:01:33.052Z,460.63
2018-09-26T20:03:35.372Z,432.90
2018-09-26T20:05:37.648Z,435.23
2018-09-26T20:07:39.941Z,415.17
2018-09-26T20:09:42.201Z,451.82
2018-09-26T20:11:45.088Z,465.55
2018-09-26T20:13:47.385Z,474.15
2018-09-26T20:15:49.654Z,467.12
2018-09-26T20:17:51.883Z,458.27
2018-09-26T20:19:54.177Z,457.75
2018-09-26T20:21:56.482Z,453.27
2018-09-26T20:23:58.754Z,456.73
2018-09-26T20:26:01.041Z,429.27
2018-09-26T20:28:03.293Z,424.80
2018-09-26T20:30:05.536Z,437.92
2018-09-26T20:32:07.849Z,416.30
2018-09-26T20:34:10.135Z,430.43
2018-09-26T20:36:12.384Z,411.15
2018-09-26T20:38:14.689Z,425.25
2018-09-26T20:40:16.960Z,420.45
2018-09-26T20:42:19.247Z,410.43
2018-09-26T20:44:21.495Z,406.55
2018-09-26T20:46:23.744Z,378.55
2018-09-26T20:48:26.041Z,413.65
2018-09-26T20:50:28.329Z,422.13
2018-09-26T20:52:30.576Z,417.37
2018-09-26T20:54:32.827Z,433.60
2018-09-26T20:56:35.098Z,452.35
2018-09-26T20:58:37.393Z,441.95
2018-09-26T21:00:39.698Z,459.57
2018-09-26T21:02:41.916Z,433.45
2018-09-26T21:04:44.160Z,459.83
2018-09-26T21:06:46.428Z,443.77
2018-09-26T21:08:48.698Z,435.60
2018-09-26T21:10:50.979Z,420.98
2018-09-26T21:12:53.294Z,413.93
2018-09-26T21:14:55.531Z,441.88
2018-09-26T21:16:57.793Z,430.25
2018-09-26T21:19:00.074Z,534.45
2018-09-26T21:21:02.354Z,443.70
2018-09-26T21:23:04.625Z,424.12
2018-09-26T21:25:06.875Z,455.73
2018-09-26T21:27:09.135Z,455.33
2018-09-26T21:29:11.407Z,452.07
2018-09-26T21:31:13.691Z,455.75
2018-09-26T21:33:15.980Z,459.13
2018-09-26T21:35:18.211Z,446.15
2018-09-26T21:37:20.468Z,464.97
2018-09-26T21:39:22.764Z,477.10
2018-09-26T21:41:25.023Z,485.60
2018-09-26T21:43:27.260Z,492.45
2018-09-26T21:45:29.543Z,500.83
2018-09-26T21:47:31.830Z,478.98
2018-09-26T21:49:34.105Z,495.00
2018-09-26T21:51:36.356Z,478.02
2018-09-26T21:53:38.664Z,494.07
2018-09-26T21:55:40.901Z,584.33
2018-09-26T21:57:43.187Z,497.33
2018-09-26T21:59:45.431Z,500.50
2018-09-26T22:01:47.675Z,553.12
2018-09-26T22:03:49.951Z,559.25
2018-09-26T22:05:52.234Z,547.50
2018-09-26T22:07:54.505Z,554.17
2018-09-26T22:09:56.758Z,535.97
2018-09-26T22:11:59.041Z,537.23
2018-09-26T22:14:01.297Z,541.40
2018-09-26T22:16:03.532Z,536.58
2018-09-26T22:18:05.819Z,530.22
2018-09-26T22:20:08.127Z,517.37
2018-09-26T22:22:10.375Z,517.70
2018-09-26T22:24:12.633Z,515.40
2018-09-26T22:26:14.924Z,515.17
2018-09-26T22:28:17.207Z,509.93
2018-09-26T22:30:19.448Z,500.57
2018-09-26T22:32:21.741Z,504.48
2018-09-26T22:34:24.000Z,492.90
2018-09-26T22:36:26.247Z,489.48
2018-09-26T22:38:28.518Z,484.18
2018-09-26T22:40:30.775Z,494.75
2018-09-26T22:42:33.012Z,489.43
2018-09-26T22:44:35.288Z,481.13
2018-09-26T22:46:37.566Z,488.50
2018-09-26T22:48:39.863Z,488.52
2018-09-26T22:50:42.091Z,486.82
2018-09-26T22:52:44.345Z,479.35
2018-09-26T22:54:46.615Z,480.18
2018-09-26T22:56:48.908Z,473.90
2018-09-26T22:58:51.181Z,473.35
2018-09-26T23:00:53.457Z,469.05
2018-09-26T23:02:55.691Z,454.87
2018-09-26T23:04:57.980Z,455.80
2018-09-26T23:07:00.251Z,466.18
2018-09-26T23:09:02.491Z,447.87
2018-09-26T23:11:04.809Z,457.62
2018-09-26T23:13:07.048Z,453.58
2018-09-26T23:15:09.315Z,453.12
2018-09-26T23:17:11.573Z,452.35
2018-09-26T23:19:13.832Z,450.00
2018-09-26T23:21:16.091Z,429.60
2018-09-26T23:23:18.336Z,437.72
2018-09-26T23:25:20.622Z,443.48
2018-09-26T23:27:22.916Z,426.80
2018-09-26T23:29:25.154Z,433.57
2018-09-26T23:31:27.405Z,438.77
2018-09-26T23:33:29.698Z,428.88
2018-09-26T23:35:31.977Z,422.50
2018-09-26T23:37:34.275Z,429.68
2018-09-26T23:39:36.508Z,416.65
2018-09-26T23:41:38.786Z,419.90
2018-09-26T23:43:41.070Z,422.02
2018-09-26T23:45:43.370Z,402.85
2018-09-26T23:47:45.613Z,410.52
2018-09-26T23:49:47.864Z,399.02
2018-09-26T23:51:50.134Z,398.18
2018-09-26T23:53:52.380Z,399.25
2018-09-26T23:55:54.646Z,404.50
2018-09-26T23:57:56.928Z,389.48
2018-09-26T23:59:59.199Z,395.97
